Terminal Aerodrome Forecast
Issued by NWS

Home | Current Version | Previous Version | Text Only | Print | Product List | Glossary On
Versions: 1 2 3 4 5 6 7 8 9 10 11 12 13 14 15 16 17 18 19 20 21 22 23
000
FTPA31 PHFO 050800 AAA
TAFITO
TAF AMD
PHTO 050803Z 0508/0606 24005KT P6SM FEW025 BKN050
      TEMPO 0508/0512 BKN025
     FM052000 04010KT P6SM FEW035 SCT050=

USA.gov is the U.S. government's official web portal to all federal, state and local government web resources and services.